首页
METAR-TAF:

METAR-TAF

机场 :

Joplin Regional Airport

Joplin, 密蘇里州, 美国

纬度: 37-09-22N, 经度: 094-30-02W, 海拔: 299米

当前天气观测

该预报发布于45分钟前的18:53 UTC
风速8节,风向,有时为16节阵风
温度 32°C
湿度 56%
气压 1014 hPa
能見度: 16.1公里
散云层高于4500英尺

METAR: KJLN 151853Z 18008G16KT 10SM SCT045 32/22 A2994 RMK AO2 SLP125 T03170217

时间: 14:38 (19:38 UTC)

预报

该预报发布于2小时和2分钟前的17:36 UTC
预报有效从15日的 18点(UTC)到 16日的 18点(UTC)
风速9节,风向南转西南,有时为20节阵风
能見度: 10公里
多云层高于16000英尺
从 15日的 2300点(UTC)
风速9节,风向
能見度: 10公里
少量云层高于24000英尺
从 16日的 0200点(UTC)
风速6节,风向
能見度: 10公里
少量云层高于25000英尺
从 16日的 1600点(UTC)
风速12节,风向南转西南,有时为20节阵风
能見度: 10公里
少量云层高于24000英尺

TAF: KJLN 151736Z 1518/1618 20009G20KT P6SM BKN160 FM152300 18009KT P6SM FEW240 FM160200 17006KT P6SM FEW250 FM161600 21012G20KT P6SM FEW240

超过4000个机场的气象观测和天气预报(METAR&TAF报告)。

可查询的气象台以黄色和红色小点在地图上表示。

将鼠标移到小点上方,可查看气象台名称。

然后点击查看天气观测和预报。

如需切换地图:点击带黑十字的绿色按钮放大地图;点击带横线的绿色按钮缩小地图;或者点击绿色箭头查看邻近地区的地图。


METAR-TAF: